Biggsville, IL

6:45 PM CST on March 03, 2015 (GMT -0600)
Kirkwood | Change Station
CLOSE
Current Station
Personal Weather Station
Location: Kirkwood, IL
Elevation: 732 ft
Nearby Weather Stations

Elev 732 ft 40.85 °N, 90.75 °W | Updated 30 minutes ago

Overcast
Overcast
33.7 °F
Feels Like 26 °F
N
10.0
Wind Variable Wind from NW
Gusts 17.0 mph

Today
High -- | Low -- °F
--% Chance of Precip.
Yesterday
High -- | Low -- °F
Precip. -- in
6:34 AM 5:56 PM
Waxing Gibbous, 97% visible
Pressure 29.84 in
Visibility 10.0 miles
Clouds Scattered Clouds 3000 ft
Windchill 26 °F
Dew Point 29 °F
Humidity 85%
Rainfall 0.07 in
Snow Depth Not available.
UV 0 out of 12
Pollen .50 out of 12
Air Quality Not available.
Flu Activity Not available.
METAR KBRL 032353Z AUTO 32008KT 10SM SCT030 01/M02 A2982 RMK AO2 SLP105 T00111022 10028 20011 51024

More Conditions Fewer Conditions

Pressure 29.84 in
Visibility 10.0 miles
Clouds Scattered Clouds 3000 ft
Windchill 26 °F
Dew Point 29 °F
Humidity 85%
Rainfall 0.07 in
Snow Depth Not available.
UV 0 out of 12
Pollen .50 out of 12
Air Quality Not available.
Flu Activity Not available.
METAR KBRL 032353Z AUTO 32008KT 10SM SCT030 01/M02 A2982 RMK AO2 SLP105 T00111022 10028 20011 51024

More Conditions Fewer Conditions

10-Day Weather Forecast

Almanac

Astronomy

Mar. 03, 2015 Rise Set
Actual Time
Civil Twilight
Nautical Twilight
Astronomical Twilight
Moon
Length of Visible Light
Length of Day
Tomorrow will be .
, % of the Moon is Illuminated

Today's Extremes

State Highs State Lows

Community

WunderPhotos

Upload Photos

1,802,340 photos uploaded!

WunderBlogs® & News

Nearby

Air Quality

  Air Quality AQ Index Pollutant
Not available.

Snow Depth

Station Depth Elevation

Earthquake Activity

City Distance Mag. Time & Date
Minimum magnitude displayed is 2.5.

Coastal Water Temperatures

Place Temperature

Nearby Weather Stations